Time;durP1;ratioP1;P1;durP2;ratioP2;P2;SDS_P1;SDS_P2;PMS_P1;PMS_P2;Temp;Humidity;BMP_temperature;BMP_pressure;BME280_temperature;BME280_humidity;BME280_pressure;Samples;Min_cycle;Max_cycle;Signal;HPM_P1;HPM_P2
2021/04/11 00:00:44;;;;;;;;;;;;;;;3.94;95.12;100763.47;4938983;29;950;-73
2021/04/11 00:03:15;;;;;;;;;;;;;;;3.95;95.56;100761.53;4938842;29;980;-74
2021/04/11 00:05:41;;;;;;;;;;;;;;;3.96;95.03;100760.41;4938931;29;817;-74
2021/04/11 00:08:09;;;;;;;;;;;;;;;3.98;95.27;100752.75;4938586;29;1218;-74
2021/04/11 00:10:37;;;;;;;;;;;;;;;3.99;95.00;100743.41;4938795;29;809;-74
2021/04/11 00:13:07;;;;;;;;;;;;;;;3.99;95.87;100740.69;4938713;29;999;-74
2021/04/11 00:15:33;;;;;;;;;;;;;;;4.00;95.33;100736.03;4938790;29;1396;-74
2021/04/11 00:17:58;;;;;;;;;;;;;;;4.01;95.22;100734.91;4938428;29;1990;-73
2021/04/11 00:20:24;;;;;;;;;;;;;;;4.03;95.68;100733.53;4943865;28;2958;-74
2021/04/11 00:22:51;;;;;;;;;;;;;;;4.04;95.27;100726.94;4977012;28;1008;-74
2021/04/11 00:25:26;;;;;;;;;;;;;;;4.05;95.49;100720.34;4977354;28;751;-74
2021/04/11 00:27:51;;;;;;;;;;;;;;;4.06;95.23;100711.03;4976275;28;1288;-74
2021/04/11 00:30:19;;;;;;;;;;;;;;;4.07;95.17;100711.88;4977097;28;790;-74
2021/04/11 00:32:46;;;;;;;;;;;;;;;4.09;95.17;100712.38;4976852;28;809;-74
2021/04/11 00:35:12;;;;;;;;;;;;;;;4.12;95.34;100703.56;4976906;28;864;-73
2021/04/11 00:37:37;;;;;;;;;;;;;;;4.10;95.69;100692.94;4974754;28;1902;-74
2021/04/11 00:40:09;;;;;;;;;;;;;;;4.12;95.21;100684.44;4976864;28;1070;-73
2021/04/11 00:42:39;;;;;;;;;;;;;;;4.12;95.90;100677.03;4976337;28;1128;-74
2021/04/11 00:45:28;;;;;;;;;;;;;;;4.15;95.88;100667.41;4976914;28;987;-74
2021/04/11 00:47:54;;;;;;;;;;;;;;;4.15;96.06;100667.41;4975780;28;1237;-74
2021/04/11 00:50:22;;;;;;;;;;;;;;;4.14;96.12;100674.81;4976579;28;976;-74
2021/04/11 00:52:48;;;;;;;;;;;;;;;4.17;95.69;100667.09;4976612;28;849;-74
2021/04/11 00:55:16;;;;;;;;;;;;;;;4.18;95.69;100660.53;4976671;28;983;-74
2021/04/11 00:57:43;;;;;;;;;;;;;;;4.18;96.36;100653.13;4975733;28;1894;-74
2021/04/11 01:00:09;;;;;;;;;;;;;;;4.20;95.78;100647.38;4976534;28;809;-74
2021/04/11 01:02:37;;;;;;;;;;;;;;;4.20;95.93;100642.72;4976257;28;1009;-74
2021/04/11 01:05:16;;;;;;;;;;;;;;;4.21;96.43;100641.59;4976497;28;777;-74
2021/04/11 01:07:45;;;;;;;;;;;;;;;4.24;96.23;100637.44;4975651;28;1245;-74
2021/04/11 01:10:13;;;;;;;;;;;;;;;4.25;95.93;100628.94;4976229;28;979;-74
2021/04/11 01:12:39;;;;;;;;;;;;;;;4.26;96.23;100630.56;4976408;28;812;-74
2021/04/11 01:15:13;;;;;;;;;;;;;;;4.29;96.71;100627.22;4976096;28;837;-74
2021/04/11 01:17:39;;;;;;;;;;;;;;;4.28;96.61;100622.84;4975492;28;1961;-74
2021/04/11 01:20:07;;;;;;;;;;;;;;;4.31;96.60;100613.25;4975940;28;1031;-74
2021/04/11 01:23:10;;;;;;;;;;;;;;;4.31;96.43;100611.31;4975959;28;1038;-74
2021/04/11 01:25:38;;;;;;;;;;;;;;;4.31;96.63;100603.13;4963958;28;1264;-73
2021/04/11 01:28:09;;;;;;;;;;;;;;;4.34;96.78;100609.88;4975359;28;1186;-73
2021/04/11 01:30:40;;;;;;;;;;;;;;;4.35;96.67;100608.78;4976666;28;817;-74
2021/04/11 01:33:08;;;;;;;;;;;;;;;4.36;96.64;100587.72;4977223;28;805;-74
2021/04/11 01:35:33;;;;;;;;;;;;;;;4.38;96.89;100585.47;4977807;28;856;-73
2021/04/11 01:37:59;;;;;;;;;;;;;;;4.41;96.77;100582.13;4975209;28;1906;-73
2021/04/11 01:41:06;;;;;;;;;;;;;;;4.42;96.64;100586.50;4975775;28;876;-74
2021/04/11 01:43:34;;;;;;;;;;;;;;;4.43;96.70;100599.03;4935112;29;1433;-74
2021/04/11 01:46:01;;;;;;;;;;;;;;;4.44;96.88;100587.78;4967908;28;1048;-74
2021/04/11 01:48:27;;;;;;;;;;;;;;;4.46;97.15;100588.28;4974863;28;1296;-73
2021/04/11 01:50:54;;;;;;;;;;;;;;;4.49;96.74;100586.88;4975803;28;936;-74
2021/04/11 01:53:21;;;;;;;;;;;;;;;4.50;96.63;100581.09;4975847;28;1031;-74
2021/04/11 01:55:46;;;;;;;;;;;;;;;4.52;97.00;100586.25;4981695;28;1251;-73
2021/04/11 01:58:13;;;;;;;;;;;;;;;4.55;96.56;100574.72;4978874;28;1902;-73
2021/04/11 02:00:44;;;;;;;;;;;;;;;4.59;96.59;100569.41;4979465;28;889;-74
2021/04/11 02:03:16;;;;;;;;;;;;;;;4.61;96.62;100573.44;4979819;28;889;-74
2021/04/11 02:05:45;;;;;;;;;;;;;;;4.63;96.50;100567.66;4979631;28;984;-74
2021/04/11 02:08:15;;;;;;;;;;;;;;;4.64;96.59;100572.03;4978656;28;1307;-74
2021/04/11 02:10:47;;;;;;;;;;;;;;;4.66;96.71;100562.38;4979773;28;924;-74
2021/04/11 02:13:14;;;;;;;;;;;;;;;4.70;96.60;100557.09;4979463;28;972;-74
2021/04/11 02:15:43;;;;;;;;;;;;;;;4.70;96.84;100555.16;4979466;28;881;-74
2021/04/11 02:18:11;;;;;;;;;;;;;;;4.73;96.48;100558.44;4978862;28;1950;-74
2021/04/11 02:20:37;;;;;;;;;;;;;;;4.74;96.77;100554.56;4979347;28;727;-74
2021/04/11 02:23:03;;;;;;;;;;;;;;;4.77;96.61;100548.47;4979437;28;1038;-74
2021/04/11 02:25:35;;;;;;;;;;;;;;;4.78;96.41;100534.47;4979450;28;793;-73
2021/04/11 02:28:01;;;;;;;;;;;;;;;4.77;96.35;100538.31;4978603;28;1221;-74
2021/04/11 02:30:27;;;;;;;;;;;;;;;4.78;96.34;100537.22;4978989;28;995;-74
2021/04/11 02:32:56;;;;;;;;;;;;;;;4.83;96.82;100536.28;4980218;28;846;-74
2021/04/11 02:35:24;;;;;;;;;;;;;;;4.81;96.63;100531.13;4980579;28;921;-74
2021/04/11 02:37:58;;;;;;;;;;;;;;;4.84;96.36;100533.22;4978604;28;1964;-74
2021/04/11 02:40:29;;;;;;;;;;;;;;;4.86;96.55;100536.47;4979011;28;885;-74
2021/04/11 02:42:57;;;;;;;;;;;;;;;4.91;96.59;100532.78;4978724;28;952;-74
2021/04/11 02:45:26;;;;;;;;;;;;;;;4.94;96.52;100523.16;4978830;28;947;-74
2021/04/11 02:47:53;;;;;;;;;;;;;;;4.97;96.55;100528.00;4978318;28;1220;-74
2021/04/11 02:50:21;;;;;;;;;;;;;;;5.00;96.38;100528.19;4978850;28;924;-74
2021/04/11 02:52:57;;;;;;;;;;;;;;;5.01;96.71;100518.03;4978650;28;844;-74
2021/04/11 02:55:24;;;;;;;;;;;;;;;4.99;96.41;100523.00;4978984;28;951;-74
2021/04/11 02:57:53;;;;;;;;;;;;;;;5.00;96.63;100519.97;4976760;28;1891;-74
2021/04/11 03:00:20;;;;;;;;;;;;;;;5.03;96.44;100524.00;4978621;28;793;-74
2021/04/11 03:02:46;;;;;;;;;;;;;;;5.00;96.59;100521.88;4978344;28;993;-74
2021/04/11 03:05:13;;;;;;;;;;;;;;;4.97;96.36;100517.06;4977020;28;855;-74
2021/04/11 03:07:44;;;;;;;;;;;;;;;4.97;96.49;100515.13;4977397;28;1273;-74
2021/04/11 03:10:17;;;;;;;;;;;;;;;4.95;95.93;100519.28;4978912;28;813;-74
2021/04/11 03:12:43;;;;;;;;;;;;;;;4.92;96.21;100508.97;4978503;28;1043;-74
2021/04/11 03:15:12;;;;;;;;;;;;;;;4.85;96.22;100514.88;4978271;28;826;-74
2021/04/11 03:17:38;;;;;;;;;;;;;;;4.85;96.02;100506.69;4977721;28;1898;-74
2021/04/11 03:20:10;;;;;;;;;;;;;;;4.85;96.16;100507.47;4977036;28;952;-74
2021/04/11 03:22:36;;;;;;;;;;;;;;;4.86;96.00;100500.06;4978205;28;1385;-74
2021/04/11 03:25:05;;;;;;;;;;;;;;;4.84;95.84;100505.06;4978128;28;826;-74
2021/04/11 03:27:46;;;;;;;;;;;;;;;4.82;95.92;100504.56;4977678;28;1104;-74
2021/04/11 03:30:20;;;;;;;;;;;;;;;4.82;96.16;100510.84;4978294;28;959;-74
2021/04/11 03:32:51;;;;;;;;;;;;;;;4.83;96.09;100507.00;4978010;28;928;-74
2021/04/11 03:35:27;;;;;;;;;;;;;;;4.85;96.20;100501.22;4978180;28;813;-74
2021/04/11 03:37:55;;;;;;;;;;;;;;;4.87;95.81;100505.25;4977364;28;1898;-73
2021/04/11 03:40:27;;;;;;;;;;;;;;;4.83;96.11;100498.00;4977917;28;909;-74
2021/04/11 03:43:04;;;;;;;;;;;;;;;4.81;95.87;100498.28;4977836;28;860;-74
2021/04/11 03:45:32;;;;;;;;;;;;;;;4.77;95.91;100499.22;4977786;28;1011;-74
2021/04/11 03:48:05;;;;;;;;;;;;;;;4.79;95.74;100497.78;4977331;28;1300;-74
2021/04/11 03:50:41;;;;;;;;;;;;;;;4.82;96.09;100499.09;4977717;28;869;-74
2021/04/11 03:53:33;;;;;;;;;;;;;;;4.85;96.04;100499.28;4977794;28;727;-74
2021/04/11 03:56:01;;;;;;;;;;;;;;;4.86;95.67;100505.53;4977562;28;905;-74
2021/04/11 03:58:40;;;;;;;;;;;;;;;4.82;95.50;100505.38;4976849;28;1902;-74
2021/04/11 04:01:15;;;;;;;;;;;;;;;4.84;95.41;100505.06;4977660;28;786;-74
2021/04/11 04:03:43;;;;;;;;;;;;;;;4.83;95.42;100509.72;4977420;28;781;-74
2021/04/11 04:06:35;;;;;;;;;;;;;;;4.83;95.95;100507.00;4977296;28;1051;-74
2021/04/11 04:09:04;;;;;;;;;;;;;;;4.80;95.74;100515.03;4975012;28;1290;-74
2021/04/11 04:12:03;;;;;;;;;;;;;;;4.78;95.48;100518.06;4977235;28;926;-74
2021/04/11 04:14:40;;;;;;;;;;;;;;;4.74;94.95;100513.53;4977211;28;805;-74
2021/04/11 04:17:23;;;;;;;;;;;;;;;4.70;95.32;100519.59;4976706;28;1894;-74
2021/04/11 04:20:10;;;;;;;;;;;;;;;4.65;95.42;100524.41;4976482;28;1314;-74
2021/04/11 04:23:10;;;;;;;;;;;;;;;4.63;95.22;100529.38;4952200;28;3283;-74
2021/04/11 04:26:08;;;;;;;;;;;;;;;4.54;95.13;100534.78;4957830;28;1043;-74
2021/04/11 04:28:56;;;;;;;;;;;;;;;4.54;95.36;100529.31;4957603;28;1385;-74
2021/04/11 04:31:38;;;;;;;;;;;;;;;4.54;95.72;100525.78;4960244;28;539;-74
2021/04/11 04:34:21;;;;;;;;;;;;;;;4.55;95.46;100530.94;4957950;28;798;-74
2021/04/11 04:37:07;;;;;;;;;;;;;;;4.49;95.01;100524.78;4957368;28;968;-74
2021/04/11 04:39:51;;;;;;;;;;;;;;;4.48;95.01;100519.63;4956688;28;1317;-74
2021/04/11 04:42:26;;;;;;;;;;;;;;;4.46;94.82;100522.66;4957618;28;794;-74
2021/04/11 04:45:23;;;;;;;;;;;;;;;4.44;95.10;100527.63;4957391;28;1063;-74
2021/04/11 04:48:20;;;;;;;;;;;;;;;4.43;94.88;100527.94;4956589;28;1336;-73
2021/04/11 04:51:14;;;;;;;;;;;;;;;4.40;95.26;100529.38;4949985;28;1375;-74
2021/04/11 04:54:04;;;;;;;;;;;;;;;4.41;95.34;100536.47;4954967;29;1130;-74
2021/04/11 04:56:52;;;;;;;;;;;;;;;4.42;94.77;100535.34;4957598;28;793;-74
2021/04/11 04:59:25;;;;;;;;;;;;;;;4.40;95.05;100545.00;4956898;28;1218;-74
2021/04/11 05:01:59;;;;;;;;;;;;;;;4.38;94.60;100547.19;4957152;28;866;-74
2021/04/11 05:04:27;;;;;;;;;;;;;;;4.37;94.66;100545.59;4957328;28;845;-74
2021/04/11 05:06:59;;;;;;;;;;;;;;;4.36;95.00;100544.78;4957279;28;968;-74
2021/04/11 05:09:38;;;;;;;;;;;;;;;4.38;94.48;100549.94;4956423;28;1238;-74
2021/04/11 05:12:24;;;;;;;;;;;;;;;4.37;94.72;100559.25;4956843;28;857;-74
2021/04/11 05:15:16;;;;;;;;;;;;;;;4.33;94.27;100551.69;4956770;28;972;-74
2021/04/11 05:18:05;;;;;;;;;;;;;;;4.14;94.37;100557.28;4956111;28;1975;-74
2021/04/11 05:20:37;;;;;;;;;;;;;;;4.04;94.27;100559.44;4956917;29;1094;-74
2021/04/11 05:23:26;;;;;;;;;;;;;;;3.99;94.59;100556.81;4955409;29;1337;-74
2021/04/11 05:26:03;;;;;;;;;;;;;;;3.95;94.79;100553.91;4956939;28;747;-74
2021/04/11 05:28:48;;;;;;;;;;;;;;;3.93;95.05;100553.41;4956686;28;1331;-74
2021/04/11 05:31:18;;;;;;;;;;;;;;;3.82;94.50;100554.72;4958471;28;583;-74
2021/04/11 05:33:44;;;;;;;;;;;;;;;3.83;94.56;100559.88;4957807;28;996;-74
2021/04/11 05:36:28;;;;;;;;;;;;;;;3.84;95.09;100553.31;4956795;28;832;-74
2021/04/11 05:39:11;;;;;;;;;;;;;;;3.88;94.84;100548.03;4956082;28;1965;-74
2021/04/11 05:42:24;;;;;;;;;;;;;;;3.89;94.80;100550.47;4956834;28;897;-74
2021/04/11 05:44:52;;;;;;;;;;;;;;;3.89;95.16;100563.31;4940686;28;985;-74
2021/04/11 05:47:24;;;;;;;;;;;;;;;3.88;94.38;100561.69;4956674;28;872;-74
2021/04/11 05:50:10;;;;;;;;;;;;;;;3.80;94.42;100567.88;4955913;28;1230;-74
2021/04/11 05:52:40;;;;;;;;;;;;;;;3.80;94.96;100570.59;4956636;28;798;-74
2021/04/11 05:55:08;;;;;;;;;;;;;;;3.74;95.35;100591.75;4956655;28;996;-74
2021/04/11 05:57:41;;;;;;;;;;;;;;;3.71;95.24;100584.97;4955848;28;1898;-74
2021/04/11 06:00:18;;;;;;;;;;;;;;;3.72;94.99;100594.78;4956304;28;992;-74
2021/04/11 06:02:55;;;;;;;;;;;;;;;3.72;95.48;100583.88;4956179;28;1154;-74
2021/04/11 06:05:42;;;;;;;;;;;;;;;3.76;95.05;100571.22;4956398;28;797;-74
2021/04/11 06:08:22;;;;;;;;;;;;;;;3.90;95.10;100579.41;4955802;28;1217;-74
2021/04/11 06:10:57;;;;;;;;;;;;;;;4.00;95.25;100580.28;4956409;28;1036;-74
2021/04/11 06:13:30;;;;;;;;;;;;;;;3.93;94.78;100584.25;4956351;28;861;-74
2021/04/11 06:16:04;;;;;;;;;;;;;;;3.96;94.19;100596.47;4956485;28;897;-74
2021/04/11 06:18:30;;;;;;;;;;;;;;;3.84;93.97;100599.75;4954156;28;1902;-74
2021/04/11 06:20:56;;;;;;;;;;;;;;;3.83;94.48;100602.78;4956174;28;861;-74
2021/04/11 06:23:37;;;;;;;;;;;;;;;3.88;94.40;100600.75;4956216;28;813;-74
2021/04/11 06:26:11;;;;;;;;;;;;;;;3.88;94.97;100602.69;4956216;28;1042;-74
2021/04/11 06:28:48;;;;;;;;;;;;;;;3.88;94.79;100614.41;4955222;28;1233;-74
2021/04/11 06:31:20;;;;;;;;;;;;;;;3.78;93.94;100616.53;4956235;28;896;-74
2021/04/11 06:33:50;;;;;;;;;;;;;;;3.76;94.42;100627.75;4959272;28;849;-74
2021/04/11 06:36:20;;;;;;;;;;;;;;;3.82;94.19;100626.53;4956314;28;793;-74
2021/04/11 06:38:54;;;;;;;;;;;;;;;3.79;94.53;100627.16;4955300;28;1966;-74
2021/04/11 06:41:58;;;;;;;;;;;;;;;3.78;94.15;100627.47;4957349;28;880;-74
2021/04/11 06:44:48;;;;;;;;;;;;;;;3.71;94.03;100625.13;4959264;28;1294;-74
2021/04/11 06:47:32;;;;;;;;;;;;;;;3.82;94.09;100628.47;4959917;29;842;-74
2021/04/11 06:50:07;;;;;;;;;;;;;;;3.99;93.85;100622.41;4959726;28;983;-74
2021/04/11 06:52:59;;;;;;;;;;;;;;;4.23;93.94;100631.16;4959559;28;983;-74
2021/04/11 06:55:54;;;;;;;;;;;;;;;4.40;92.95;100630.53;4959994;29;869;-75
2021/04/11 06:58:25;;;;;;;;;;;;;;;4.59;92.19;100630.38;4959112;28;1936;-74
2021/04/11 07:01:28;;;;;;;;;;;;;;;4.68;91.30;100630.47;4959465;28;1051;-74
2021/04/11 07:04:30;;;;;;;;;;;;;;;4.40;91.53;100622.34;4959413;29;933;-74
2021/04/11 07:07:24;;;;;;;;;;;;;;;4.37;91.21;100635.81;4959104;29;813;-74
2021/04/11 07:10:00;;;;;;;;;;;;;;;4.56;90.75;100635.66;4958972;29;1256;-74
2021/04/11 07:12:56;;;;;;;;;;;;;;;4.78;89.80;100634.91;4959118;28;948;-74
2021/04/11 07:16:05;;;;;;;;;;;;;;;5.16;88.90;100643.53;4959216;28;818;-74
2021/04/11 07:18:40;;;;;;;;;;;;;;;4.79;88.82;100645.50;4958472;29;1957;-74
2021/04/11 07:21:27;;;;;;;;;;;;;;;4.28;90.36;100643.94;4958894;28;909;-74
2021/04/11 07:24:23;;;;;;;;;;;;;;;4.18;91.45;100649.59;4958913;29;798;-74
2021/04/11 07:27:10;;;;;;;;;;;;;;;4.49;91.01;100656.03;4958846;29;962;-74
2021/04/11 07:29:44;;;;;;;;;;;;;;;4.62;89.36;100669.97;4958234;28;1301;-74
2021/04/11 07:33:00;;;;;;;;;;;;;;;4.59;88.73;100676.88;4958833;28;844;-74
2021/04/11 07:35:46;;;;;;;;;;;;;;;4.62;89.23;100684.47;4937532;29;1110;-74
2021/04/11 07:38:41;;;;;;;;;;;;;;;4.32;88.49;100689.47;4956793;28;1894;-74
2021/04/11 07:41:31;;;;;;;;;;;;;;;4.35;89.40;100696.25;4958747;28;830;-74
2021/04/11 07:44:05;;;;;;;;;;;;;;;4.46;89.69;100696.84;4958638;28;967;-74
2021/04/11 07:47:06;;;;;;;;;;;;;;;4.40;89.68;100700.81;4958548;28;821;-74
2021/04/11 07:49:41;;;;;;;;;;;;;;;4.45;89.26;100709.72;4958222;28;1328;-74
2021/04/11 07:52:33;;;;;;;;;;;;;;;4.60;88.83;100716.81;4958770;28;867;-74
2021/04/11 07:55:04;;;;;;;;;;;;;;;4.72;88.71;100724.44;4958375;28;1675;-74
2021/04/11 07:57:44;;;;;;;;;;;;;;;5.09;86.40;100728.03;4957824;28;1898;-74
2021/04/11 08:00:30;;;;;;;;;;;;;;;4.73;86.80;100723.34;4956926;29;1339;-74
2021/04/11 08:03:10;;;;;;;;;;;;;;;4.44;88.30;100731.91;4958158;28;1038;-74
2021/04/11 08:06:11;;;;;;;;;;;;;;;4.38;88.90;100741.31;4953725;28;3289;-74
2021/04/11 08:08:58;;;;;;;;;;;;;;;4.32;88.00;100733.19;4942175;29;3393;-74
2021/04/11 08:11:44;;;;;;;;;;;;;;;4.40;87.48;100745.38;4957827;29;3460;-74
2021/04/11 08:14:32;;;;;;;;;;;;;;;4.18;87.57;100740.59;4958101;29;797;-73
2021/04/11 08:17:04;;;;;;;;;;;;;;;4.58;87.75;100740.09;4958318;28;1012;-74
2021/04/11 08:19:45;;;;;;;;;;;;;;;4.82;86.50;100734.38;4953346;28;3296;-74
2021/04/11 08:22:13;;;;;;;;;;;;;;;4.98;86.30;100732.91;4957498;28;3156;-74
2021/04/11 08:25:05;;;;;;;;;;;;;;;4.91;85.25;100735.25;4957699;28;3069;-74
2021/04/11 08:27:49;;;;;;;;;;;;;;;4.75;85.32;100766.81;4958421;29;1218;-75
2021/04/11 08:30:14;;;;;;;;;;;;;;;4.43;86.47;100766.63;4957577;29;953;-74
2021/04/11 08:33:14;;;;;;;;;;;;;;;4.49;87.25;100781.81;4960759;28;1024;-73
2021/04/11 08:36:25;;;;;;;;;;;;;;;4.52;87.12;100797.63;4951620;28;1142;-73
2021/04/11 08:39:12;;;;;;;;;;;;;;;4.83;86.70;100785.25;4956628;29;1932;-74
2021/04/11 08:42:04;;;;;;;;;;;;;;;5.06;84.28;100783.38;4956860;28;1532;-73
2021/04/11 08:44:54;;;;;;;;;;;;;;;5.50;83.52;100786.47;4956424;28;1119;-74
2021/04/11 08:47:25;;;;;;;;;;;;;;;5.53;81.66;100803.09;4957134;28;1308;-74
2021/04/11 08:50:00;;;;;;;;;;;;;;;5.21;82.28;100795.91;4956530;28;1263;-74
2021/04/11 08:52:53;;;;;;;;;;;;;;;5.21;82.25;100793.19;4957258;28;837;-74
2021/04/11 08:55:32;;;;;;;;;;;;;;;4.99;81.26;100802.16;4957105;28;889;-73
2021/04/11 08:58:00;;;;;;;;;;;;;;;5.00;81.35;100809.22;4954396;28;3357;-74
2021/04/11 09:00:37;;;;;;;;;;;;;;;5.26;81.55;100801.28;4953480;28;3580;-74
2021/04/11 09:03:30;;;;;;;;;;;;;;;5.26;80.89;100804.00;4955608;28;3511;-74
2021/04/11 09:06:12;;;;;;;;;;;;;;;5.07;80.44;100826.84;4956430;29;3156;-74
2021/04/11 09:09:06;;;;;;;;;;;;;;;4.66;81.45;100835.91;4954887;29;1298;-74
2021/04/11 09:11:53;;;;;;;;;;;;;;;4.35;82.83;100834.88;4956829;29;822;-75
2021/04/11 09:14:34;;;;;;;;;;;;;;;4.50;83.66;100827.19;4956597;28;1320;-74
2021/04/11 09:17:37;;;;;;;;;;;;;;;4.65;82.05;100819.78;4956365;28;1690;-74
2021/04/11 09:20:05;;;;;;;;;;;;;;;4.84;80.96;100836.09;4956305;29;976;-73
2021/04/11 09:22:38;;;;;;;;;;;;;;;4.63;80.81;100841.97;4956753;28;3299;-73
2021/04/11 09:25:19;;;;;;;;;;;;;;;4.63;82.11;100858.38;4956607;28;945;-74
2021/04/11 09:28:05;;;;;;;;;;;;;;;4.68;81.55;100863.75;4955814;28;1309;-74
2021/04/11 09:30:46;;;;;;;;;;;;;;;4.90;80.63;100859.53;4956617;28;944;-74
2021/04/11 09:33:38;;;;;;;;;;;;;;;4.97;80.12;100870.06;4956265;28;864;-73
2021/04/11 09:36:25;;;;;;;;;;;;;;;4.56;80.81;100868.13;4941295;29;1027;-73
2021/04/11 09:39:48;;;;;;;;;;;;;;;4.37;82.08;100871.72;4956092;28;1904;-74
2021/04/11 09:42:46;;;;;;;;;;;;;;;4.47;81.24;100887.16;4955944;29;1064;-74
2021/04/11 09:45:35;;;;;;;;;;;;;;;4.79;80.63;100872.56;4956421;28;797;-73
2021/04/11 09:48:20;;;;;;;;;;;;;;;5.03;79.02;100887.97;4955874;28;1330;-73
2021/04/11 09:50:45;;;;;;;;;;;;;;;5.01;77.47;100888.28;4955724;28;1059;-73
2021/04/11 09:53:43;;;;;;;;;;;;;;;5.03;77.63;100898.94;4955925;28;961;-73
2021/04/11 09:56:19;;;;;;;;;;;;;;;4.99;77.43;100897.94;4934729;29;1056;-74
2021/04/11 09:58:47;;;;;;;;;;;;;;;4.77;77.64;100877.53;4942723;29;1899;-73
2021/04/11 10:01:41;;;;;;;;;;;;;;;4.64;77.55;100890.09;4955065;29;1338;-74
2021/04/11 10:04:15;;;;;;;;;;;;;;;4.87;78.78;100901.97;4953056;29;4169;-74
2021/04/11 10:06:48;;;;;;;;;;;;;;;4.68;78.25;100902.06;4938121;28;3778;-74
2021/04/11 10:09:35;;;;;;;;;;;;;;;4.71;79.64;100906.13;4950727;29;3861;-74
2021/04/11 10:12:07;;;;;;;;;;;;;;;4.84;78.93;100905.31;4956073;28;822;-74
2021/04/11 10:14:32;;;;;;;;;;;;;;;4.76;77.88;100925.19;4955390;28;877;-73
2021/04/11 10:17:13;;;;;;;;;;;;;;;4.80;76.95;100928.13;4958373;28;885;-73
2021/04/11 10:19:38;;;;;;;;;;;;;;;4.87;75.44;100932.06;4958532;28;1446;-74
2021/04/11 10:22:06;;;;;;;;;;;;;;;5.05;75.67;100933.09;4959939;28;3936;-74
2021/04/11 10:24:51;;;;;;;;;;;;;;;5.14;74.13;100925.00;4959437;28;861;-74
2021/04/11 10:27:49;;;;;;;;;;;;;;;5.16;74.81;100930.97;4940350;29;896;-74
2021/04/11 10:30:17;;;;;;;;;;;;;;;5.23;73.94;100944.25;4942345;29;1095;-72
2021/04/11 10:33:13;;;;;;;;;;;;;;;5.26;74.39;100949.91;4960041;28;1099;-73
2021/04/11 10:35:38;;;;;;;;;;;;;;;5.03;74.20;100946.25;4957750;29;1404;-74
2021/04/11 10:38:15;;;;;;;;;;;;;;;5.08;73.74;100954.38;4957179;28;2435;-73
2021/04/11 10:41:14;;;;;;;;;;;;;;;4.98;72.45;100954.56;4957952;29;2999;-75
2021/04/11 10:44:19;;;;;;;;;;;;;;;4.95;75.26;100955.19;4960510;29;919;-74
2021/04/11 10:47:06;;;;;;;;;;;;;;;5.06;74.70;100951.13;4949874;28;1169;-74
2021/04/11 10:49:45;;;;;;;;;;;;;;;4.88;74.89;100966.53;4959843;28;1198;-73
2021/04/11 10:52:30;;;;;;;;;;;;;;;4.75;74.53;100970.06;4959928;28;853;-74
2021/04/11 10:55:14;;;;;;;;;;;;;;;4.85;74.84;100969.06;4959758;28;1736;-74
2021/04/11 10:58:14;;;;;;;;;;;;;;;5.15;75.09;100967.66;4959557;29;1890;-73
2021/04/11 11:01:18;;;;;;;;;;;;;;;5.13;73.60;100964.41;4962282;28;900;-74
2021/04/11 11:03:44;;;;;;;;;;;;;;;5.43;73.49;100982.16;4959611;28;833;-74
2021/04/11 11:06:27;;;;;;;;;;;;;;;5.50;72.47;100989.94;4959780;28;893;-73
2021/04/11 11:09:01;;;;;;;;;;;;;;;5.44;72.32;101007.63;4958517;29;1423;-73
2021/04/11 11:11:39;;;;;;;;;;;;;;;5.48;72.62;101000.41;4959103;28;963;-73
2021/04/11 11:14:10;;;;;;;;;;;;;;;5.43;72.26;100993.13;4959253;28;825;-73
2021/04/11 11:17:03;;;;;;;;;;;;;;;5.58;72.34;101015.81;4958941;28;1184;-73
2021/04/11 11:19:50;;;;;;;;;;;;;;;5.56;71.25;101004.38;4958460;28;1886;-73
2021/04/11 11:22:38;;;;;;;;;;;;;;;5.40;70.85;101012.09;4959313;28;1010;-74
2021/04/11 11:25:15;;;;;;;;;;;;;;;5.42;71.45;101018.88;4947630;28;1585;-73
2021/04/11 11:28:23;;;;;;;;;;;;;;;5.03;73.22;101011.94;4942870;29;3115;-73
2021/04/11 11:31:07;;;;;;;;;;;;;;;5.05;73.26;101036.28;4940600;28;1237;-74
2021/04/11 11:33:41;;;;;;;;;;;;;;;5.28;71.84;101038.03;4958835;29;901;-73
2021/04/11 11:36:15;;;;;;;;;;;;;;;5.36;71.28;101038.44;4951121;28;1235;-73
2021/04/11 11:39:01;;;;;;;;;;;;;;;5.30;71.52;101040.47;4938832;29;1902;-73
2021/04/11 11:41:42;;;;;;;;;;;;;;;5.40;71.50;101039.47;4939412;29;989;-73
2021/04/11 11:44:18;;;;;;;;;;;;;;;5.96;69.32;101046.56;4952207;29;3485;-74
2021/04/11 11:47:09;;;;;;;;;;;;;;;6.39;66.18;101057.09;4938228;29;905;-74
2021/04/11 11:49:55;;;;;;;;;;;;;;;6.39;66.11;101056.31;4945957;29;2876;-74
2021/04/11 11:52:27;;;;;;;;;;;;;;;6.13;66.30;101050.59;4957366;28;1030;-75
2021/04/11 11:55:01;;;;;;;;;;;;;;;5.89;67.25;101068.06;4956230;28;1433;-75
2021/04/11 11:57:48;;;;;;;;;;;;;;;5.47;68.13;101070.00;4958233;28;1890;-74
2021/04/11 12:00:18;;;;;;;;;;;;;;;5.20;68.95;101076.25;4958527;28;813;-74
2021/04/11 12:02:53;;;;;;;;;;;;;;;5.12;69.36;101072.28;4958155;28;984;-74
2021/04/11 12:05:26;;;;;;;;;;;;;;;5.41;69.88;101087.66;4957925;28;817;-74
2021/04/11 12:08:26;;;;;;;;;;;;;;;5.53;68.05;101085.22;4957495;28;1289;-74
2021/04/11 12:11:02;;;;;;;;;;;;;;;5.44;68.37;101093.31;4954357;28;1409;-74
2021/04/11 12:13:47;;;;;;;;;;;;;;;5.12;69.25;101098.84;4958233;28;789;-74
2021/04/11 12:16:24;;;;;;;;;;;;;;;4.93;69.71;101105.19;4958121;28;877;-74
2021/04/11 12:18:57;;;;;;;;;;;;;;;4.89;70.37;101107.69;4958445;28;1948;-74
2021/04/11 12:21:28;;;;;;;;;;;;;;;5.08;69.79;101117.78;4961062;28;876;-73
2021/04/11 12:24:06;;;;;;;;;;;;;;;5.29;68.45;101129.19;4959684;28;1000;-74
2021/04/11 12:26:33;;;;;;;;;;;;;;;5.56;67.57;101135.84;4957651;28;860;-74
2021/04/11 12:29:11;;;;;;;;;;;;;;;5.58;66.46;101136.34;4947021;28;3156;-74
2021/04/11 12:31:45;;;;;;;;;;;;;;;5.68;66.42;101149.88;4936535;29;936;-74
2021/04/11 12:34:35;;;;;;;;;;;;;;;5.68;66.65;101147.13;4951401;29;2285;-74
2021/04/11 12:37:11;;;;;;;;;;;;;;;5.53;66.55;101150.16;4956928;28;1099;-74
2021/04/11 12:39:38;;;;;;;;;;;;;;;5.20;68.24;101141.97;4950358;28;2930;-74
2021/04/11 12:42:30;;;;;;;;;;;;;;;5.09;69.04;101146.81;4955555;28;1874;-73
2021/04/11 12:45:26;;;;;;;;;;;;;;;5.23;69.17;101155.88;4955860;28;802;-74
2021/04/11 12:48:02;;;;;;;;;;;;;;;5.40;68.19;101163.53;4956821;28;1870;-73
2021/04/11 12:50:45;;;;;;;;;;;;;;;5.55;67.12;101170.63;4957715;28;2068;-74
2021/04/11 12:53:34;;;;;;;;;;;;;;;5.92;65.66;101179.03;4957633;28;905;-73
2021/04/11 12:56:06;;;;;;;;;;;;;;;6.01;65.95;101160.78;4957259;28;844;-73
2021/04/11 12:58:36;;;;;;;;;;;;;;;5.71;65.69;101176.66;4954074;28;3396;-73
2021/04/11 13:01:23;;;;;;;;;;;;;;;5.35;66.88;101173.75;4956418;28;2571;-73
2021/04/11 13:04:03;;;;;;;;;;;;;;;5.22;68.06;101180.81;4956179;28;2455;-73
2021/04/11 13:06:32;;;;;;;;;;;;;;;5.34;66.87;101172.94;4957100;28;892;-73
2021/04/11 13:09:13;;;;;;;;;;;;;;;5.57;66.56;101175.81;4956465;28;1182;-73
2021/04/11 13:12:00;;;;;;;;;;;;;;;5.82;65.78;101194.53;4957074;28;968;-73
2021/04/11 13:14:29;;;;;;;;;;;;;;;6.06;64.51;101190.81;4956739;29;2001;-74
2021/04/11 13:17:06;;;;;;;;;;;;;;;6.24;63.41;101186.34;4956087;28;3304;-73
2021/04/11 13:19:35;;;;;;;;;;;;;;;6.19;63.92;101194.66;4968900;28;1883;-73
2021/04/11 13:22:16;;;;;;;;;;;;;;;6.11;64.82;101198.94;4956614;28;928;-73
2021/04/11 13:25:32;;;;;;;;;;;;;;;6.27;63.88;101207.69;4956984;28;2003;-73
2021/04/11 13:28:24;;;;;;;;;;;;;;;6.62;63.15;101199.81;4949758;29;1998;-73
2021/04/11 13:31:09;;;;;;;;;;;;;;;6.81;63.55;101205.13;4956885;28;802;-74
2021/04/11 13:33:46;;;;;;;;;;;;;;;6.32;63.95;101218.53;4951552;28;4038;-74
2021/04/11 13:36:40;;;;;;;;;;;;;;;6.30;64.46;101219.94;4955402;28;2002;-74
2021/04/11 13:39:13;;;;;;;;;;;;;;;5.97;64.40;101228.25;4955872;28;3425;-74
2021/04/11 13:41:57;;;;;;;;;;;;;;;5.96;64.19;101224.72;4956532;28;2070;-74
2021/04/11 13:44:50;;;;;;;;;;;;;;;6.24;63.40;101229.41;4956704;28;976;-74
2021/04/11 13:47:30;;;;;;;;;;;;;;;6.48;63.69;101235.50;4954138;28;2109;-74
2021/04/11 13:50:06;;;;;;;;;;;;;;;6.32;62.38;101239.69;4955195;28;3995;-75
2021/04/11 13:52:46;;;;;;;;;;;;;;;5.70;63.39;101257.22;4955823;28;1947;-74
2021/04/11 13:55:32;;;;;;;;;;;;;;;5.27;64.64;101260.13;4962298;28;3245;-74
2021/04/11 13:58:06;;;;;;;;;;;;;;;5.00;66.69;101269.00;4962318;28;1898;-74
2021/04/11 14:00:40;;;;;;;;;;;;;;;5.05;67.25;101263.47;4962592;28;1016;-74
2021/04/11 14:03:23;;;;;;;;;;;;;;;5.33;66.37;101266.31;4960961;28;2113;-74